createdAt,value
2023-04-02T00:02:34.048Z,1.55
2023-04-02T00:05:55.928Z,1.73
2023-04-02T00:09:23.966Z,1.55
2023-04-02T00:12:26.456Z,1.50
2023-04-02T00:15:28.992Z,1.40
2023-04-02T00:18:32.416Z,2.10
2023-04-02T00:21:37.255Z,1.73
2023-04-02T00:24:40.503Z,1.83
2023-04-02T00:27:43.208Z,1.50
2023-04-02T00:30:56.462Z,1.73
2023-04-02T00:34:00.597Z,1.52
2023-04-02T00:37:03.146Z,1.77
2023-04-02T00:40:10.165Z,1.52
2023-04-02T00:43:16.775Z,2.10
2023-04-02T00:46:24.274Z,1.92
2023-04-02T00:49:36.889Z,2.67
2023-04-02T00:52:41.861Z,1.85
2023-04-02T00:55:44.216Z,1.90
2023-04-02T00:58:51.770Z,2.17
2023-04-02T01:02:01.821Z,1.70
2023-04-02T01:05:23.564Z,1.55
2023-04-02T01:09:03.017Z,2.30
2023-04-02T01:12:25.383Z,1.30
2023-04-02T01:15:40.624Z,1.42
2023-04-02T01:18:56.649Z,1.40
2023-04-02T01:22:18.310Z,1.30
2023-04-02T01:29:06.864Z,1.55
2023-04-02T01:32:17.628Z,1.25
2023-04-02T01:35:21.817Z,1.40
2023-04-02T01:38:28.122Z,1.55
2023-04-02T01:41:36.616Z,1.92
2023-04-02T01:44:45.383Z,1.52
2023-04-02T01:47:47.843Z,1.65
2023-04-02T01:50:52.666Z,2.97
2023-04-02T01:53:55.382Z,2.85
2023-04-02T01:56:57.970Z,3.05
2023-04-02T02:00:02.030Z,2.58
2023-04-02T02:03:06.330Z,1.95
2023-04-02T02:06:12.257Z,2.50
2023-04-02T02:09:26.868Z,2.40
2023-04-02T02:12:29.100Z,1.75
2023-04-02T02:15:33.662Z,1.48
2023-04-02T02:18:36.484Z,1.40
2023-04-02T02:21:47.912Z,1.10
2023-04-02T02:24:50.581Z,1.25
2023-04-02T02:27:59.586Z,1.30
2023-04-02T02:31:18.598Z,1.25
2023-04-02T02:34:25.147Z,1.42
2023-04-02T02:37:36.932Z,1.75
2023-04-02T02:40:43.807Z,1.73
2023-04-02T02:43:59.423Z,1.40
2023-04-02T02:47:04.297Z,1.50
2023-04-02T02:50:09.013Z,1.10
2023-04-02T02:53:21.714Z,1.50
2023-04-02T02:56:24.154Z,1.20
2023-04-02T02:59:27.048Z,1.42
2023-04-02T03:02:29.468Z,0.93
2023-04-02T03:05:31.980Z,1.15
2023-04-02T03:08:48.841Z,1.12
2023-04-02T03:11:56.322Z,0.93
2023-04-02T03:15:19.022Z,1.00
2023-04-02T03:18:27.319Z,0.95
2023-04-02T03:21:49.990Z,1.58
2023-04-02T03:24:59.807Z,1.10
2023-04-02T03:28:05.430Z,1.33
2023-04-02T03:31:31.516Z,1.23
2023-04-02T03:34:38.583Z,1.20
2023-04-02T03:37:47.809Z,1.20
2023-04-02T03:41:16.418Z,1.30
2023-04-02T03:44:29.035Z,1.05
2023-04-02T03:47:46.865Z,1.40
2023-04-02T03:51:14.216Z,1.40
2023-04-02T03:54:16.857Z,0.90
2023-04-02T03:57:30.035Z,1.10
2023-04-02T04:00:44.163Z,1.27
2023-04-02T04:03:50.838Z,1.40
2023-04-02T04:06:53.648Z,4.15
2023-04-02T04:09:57.010Z,3.45
2023-04-02T04:13:11.867Z,2.50
2023-04-02T04:16:20.882Z,1.75
2023-04-02T04:19:34.714Z,2.20
2023-04-02T04:22:37.876Z,2.40
2023-04-02T04:25:40.536Z,2.30
2023-04-02T04:28:58.421Z,2.20
2023-04-02T04:32:33.770Z,2.05
2023-04-02T04:35:40.268Z,2.08
2023-04-02T04:38:49.298Z,2.28
2023-04-02T04:41:52.360Z,1.33
2023-04-02T04:45:13.227Z,1.50
2023-04-02T04:48:26.882Z,1.73
2023-04-02T04:51:36.535Z,1.48
2023-04-02T04:54:39.597Z,1.58
2023-04-02T04:57:42.283Z,1.10
2023-04-02T05:00:59.374Z,1.60
2023-04-02T05:04:09.400Z,1.62
2023-04-02T05:07:21.692Z,1.35
2023-04-02T05:10:39.140Z,1.77
2023-04-02T05:14:00.998Z,1.30
2023-04-02T05:17:10.857Z,1.48
2023-04-02T05:20:17.044Z,1.42
2023-04-02T05:23:25.609Z,1.20
2023-04-02T05:26:33.581Z,1.25
2023-04-02T05:29:38.961Z,1.40
2023-04-02T05:32:44.652Z,1.23
2023-04-02T05:35:49.624Z,1.60
2023-04-02T05:38:52.665Z,1.27
2023-04-02T05:42:20.318Z,1.60
2023-04-02T05:45:36.004Z,1.25
2023-04-02T05:48:41.066Z,1.50
2023-04-02T05:51:47.337Z,1.42
2023-04-02T05:54:53.376Z,1.65
2023-04-02T05:58:21.467Z,1.27
2023-04-02T06:01:41.401Z,1.33
2023-04-02T06:04:53.823Z,1.48
2023-04-02T06:08:01.396Z,1.60
2023-04-02T06:11:11.831Z,1.60
2023-04-02T06:14:15.570Z,1.52
2023-04-02T06:17:19.363Z,1.50
2023-04-02T06:20:21.568Z,1.00
2023-04-02T06:23:33.205Z,1.52
2023-04-02T06:26:39.315Z,1.42
2023-04-02T06:29:43.198Z,1.40
2023-04-02T06:32:45.496Z,1.10
2023-04-02T06:35:51.061Z,2.00
2023-04-02T06:38:55.753Z,1.30
2023-04-02T06:42:14.177Z,1.23
2023-04-02T06:45:24.343Z,1.30
2023-04-02T06:48:27.566Z,1.20
2023-04-02T06:51:30.427Z,1.60
2023-04-02T06:54:32.650Z,1.02
2023-04-02T06:57:35.870Z,1.30
2023-04-02T07:00:48.953Z,1.10
2023-04-02T07:03:51.720Z,1.23
2023-04-02T07:06:53.899Z,1.12
2023-04-02T07:09:56.372Z,1.02
2023-04-02T07:12:58.582Z,1.12
2023-04-02T07:16:01.389Z,1.05
2023-04-02T07:19:04.302Z,1.33
2023-04-02T07:22:06.485Z,1.40
2023-04-02T07:25:09.069Z,1.33
2023-04-02T07:28:12.375Z,1.65
2023-04-02T07:31:20.751Z,1.23
2023-04-02T07:34:22.983Z,1.20
2023-04-02T07:37:25.378Z,1.23
2023-04-02T07:40:27.567Z,1.70
2023-04-02T07:43:29.771Z,1.50
2023-04-02T07:46:32.076Z,1.15
2023-04-02T07:49:34.286Z,1.85
2023-04-02T07:52:42.159Z,1.20
2023-04-02T07:55:44.371Z,1.95
2023-04-02T07:58:46.826Z,1.37
2023-04-02T08:01:49.071Z,1.45
2023-04-02T08:04:51.795Z,1.87
2023-04-02T08:07:57.429Z,1.20
2023-04-02T08:10:59.570Z,1.55
2023-04-02T08:14:01.761Z,1.30
2023-04-02T08:17:04.113Z,1.75
2023-04-02T08:20:07.987Z,1.30
2023-04-02T08:23:18.010Z,1.98
2023-04-02T08:26:20.498Z,1.80
2023-04-02T08:29:23.057Z,1.85
2023-04-02T08:32:26.535Z,1.27
2023-04-02T08:35:28.824Z,1.50
2023-04-02T08:38:31.169Z,1.27
2023-04-02T08:41:45.735Z,1.60
2023-04-02T08:45:24.149Z,1.30
2023-04-02T08:48:28.207Z,1.45
2023-04-02T08:51:36.789Z,1.33
2023-04-02T08:54:39.074Z,1.10
2023-04-02T08:57:48.190Z,1.23
2023-04-02T09:00:54.052Z,1.42
2023-04-02T09:03:58.609Z,1.23
2023-04-02T09:07:01.010Z,1.60
2023-04-02T09:10:04.401Z,1.80
2023-04-02T09:13:18.357Z,1.52
2023-04-02T09:16:23.377Z,1.25
2023-04-02T09:19:31.645Z,1.30
2023-04-02T09:22:35.105Z,1.17
2023-04-02T09:25:51.048Z,1.60
2023-04-02T09:29:22.581Z,1.20
2023-04-02T09:32:35.513Z,1.20
2023-04-02T09:35:54.759Z,1.20
2023-04-02T09:38:59.350Z,1.35
2023-04-02T09:42:07.497Z,1.17
2023-04-02T09:45:23.735Z,1.37
2023-04-02T09:48:30.258Z,1.50
2023-04-02T09:51:34.720Z,1.40
2023-04-02T09:54:41.990Z,1.52
2023-04-02T09:57:45.595Z,1.52
2023-04-02T10:00:52.135Z,1.20
2023-04-02T10:03:54.528Z,1.50
2023-04-02T10:06:58.026Z,1.25
2023-04-02T10:10:02.171Z,1.37
2023-04-02T10:13:30.709Z,1.55
2023-04-02T10:16:52.256Z,1.48
2023-04-02T10:19:58.564Z,1.42
2023-04-02T10:23:00.829Z,1.25
2023-04-02T10:26:44.538Z,1.40
2023-04-02T10:29:46.653Z,1.60
2023-04-02T10:33:28.710Z,1.20
2023-04-02T10:36:52.104Z,1.30
2023-04-02T10:39:58.588Z,1.45
2023-04-02T10:43:13.158Z,1.60
2023-04-02T10:46:43.864Z,1.20
2023-04-02T10:49:53.647Z,1.48
2023-04-02T10:53:11.824Z,1.50
2023-04-02T10:56:14.667Z,1.20
2023-04-02T10:59:23.790Z,1.60
2023-04-02T11:02:28.953Z,1.40
2023-04-02T11:05:44.424Z,1.20
2023-04-02T11:08:49.110Z,1.25
2023-04-02T11:11:53.479Z,1.50
2023-04-02T11:14:56.293Z,1.20
2023-04-02T11:17:58.742Z,1.65
2023-04-02T11:21:03.387Z,1.17
2023-04-02T11:24:05.926Z,1.42
2023-04-02T11:27:11.321Z,1.42
2023-04-02T11:30:18.098Z,1.30
2023-04-02T11:33:38.255Z,1.58
2023-04-02T11:36:52.937Z,1.60
2023-04-02T11:40:18.227Z,1.30
2023-04-02T11:43:32.639Z,1.00
2023-04-02T11:46:39.652Z,1.00
2023-04-02T11:50:01.401Z,1.33
2023-04-02T11:53:10.548Z,0.90
2023-04-02T11:56:45.393Z,0.95
2023-04-02T12:00:02.930Z,1.02
2023-04-02T12:03:13.778Z,0.90
2023-04-02T12:06:28.096Z,0.90
2023-04-02T12:09:49.792Z,0.90
2023-04-02T12:12:52.080Z,1.02
2023-04-02T12:15:57.734Z,1.08
2023-04-02T12:19:00.678Z,1.05
2023-04-02T12:22:02.927Z,0.90
2023-04-02T12:25:27.091Z,1.10
2023-04-02T12:28:31.333Z,0.80
2023-04-02T12:31:33.731Z,1.05
2023-04-02T12:34:36.361Z,0.93
2023-04-02T12:37:38.532Z,1.20
2023-04-02T12:40:40.891Z,0.93
2023-04-02T12:43:43.176Z,1.30
2023-04-02T12:46:46.084Z,1.30
2023-04-02T12:49:48.491Z,1.40
2023-04-02T12:52:53.281Z,0.90
2023-04-02T12:55:56.244Z,1.10
2023-04-02T12:59:00.386Z,0.90
2023-04-02T13:02:14.728Z,0.90
2023-04-02T13:05:41.438Z,0.88
2023-04-02T13:08:43.765Z,0.90
2023-04-02T13:11:46.036Z,1.00
2023-04-02T13:14:54.954Z,1.00
2023-04-02T13:18:12.393Z,1.00
2023-04-02T13:21:14.671Z,1.08
2023-04-02T13:24:22.062Z,1.12
2023-04-02T13:27:24.315Z,1.10
2023-04-02T13:30:28.109Z,1.20
2023-04-02T13:33:30.500Z,0.88
2023-04-02T13:36:32.700Z,1.10
2023-04-02T13:39:34.893Z,1.10
2023-04-02T13:42:37.224Z,0.90
2023-04-02T13:45:40.858Z,0.85
2023-04-02T13:48:43.286Z,0.70
2023-04-02T13:51:47.982Z,0.80
2023-04-02T13:54:53.164Z,0.90
2023-04-02T13:57:56.715Z,0.65
2023-04-02T14:00:58.958Z,0.82
2023-04-02T14:04:02.494Z,0.70
2023-04-02T14:07:34.445Z,0.80
2023-04-02T14:11:03.214Z,3.50
2023-04-02T14:14:39.922Z,1.05
2023-04-02T14:18:00.854Z,1.02
2023-04-02T14:24:23.535Z,1.33
2023-04-02T14:27:49.251Z,0.70
2023-04-02T14:31:07.181Z,0.73
2023-04-02T14:34:22.077Z,0.60
2023-04-02T14:37:33.293Z,0.85
2023-04-02T14:41:05.671Z,2.12
2023-04-02T14:44:09.095Z,1.02
2023-04-02T14:47:18.110Z,1.30
2023-04-02T14:50:28.030Z,1.60
2023-04-02T14:53:42.677Z,1.15
2023-04-02T14:56:51.960Z,0.98
2023-04-02T14:59:57.079Z,0.98
2023-04-02T15:03:14.661Z,1.48
2023-04-02T15:06:24.951Z,3.40
2023-04-02T15:09:32.349Z,1.67
2023-04-02T15:12:37.368Z,1.55
2023-04-02T15:15:45.184Z,1.40
2023-04-02T15:18:51.639Z,1.50
2023-04-02T15:22:03.965Z,1.37
2023-04-02T15:25:09.968Z,1.20
2023-04-02T15:28:29.998Z,1.45
2023-04-02T15:31:33.896Z,2.10
2023-04-02T15:34:48.226Z,2.72
2023-04-02T15:38:11.645Z,1.87
2023-04-02T15:41:23.878Z,2.33
2023-04-02T15:44:26.144Z,1.70
2023-04-02T15:47:28.634Z,2.08
2023-04-02T15:50:58.275Z,2.20
2023-04-02T15:54:12.864Z,2.17
2023-04-02T15:57:15.020Z,1.55
2023-04-02T16:00:27.897Z,2.70
2023-04-02T16:03:42.248Z,3.70
2023-04-02T16:07:10.720Z,4.87
2023-04-02T16:10:37.945Z,3.50
2023-04-02T16:13:44.179Z,4.50
2023-04-02T16:16:48.432Z,5.25
2023-04-02T16:20:13.955Z,4.05
2023-04-02T16:23:28.067Z,10.02
2023-04-02T16:26:39.817Z,8.57
2023-04-02T16:29:55.476Z,4.62
2023-04-02T16:33:06.979Z,4.78
2023-04-02T16:39:39.226Z,4.43
2023-04-02T16:43:07.342Z,3.90
2023-04-02T16:46:39.654Z,2.47
2023-04-02T16:49:58.581Z,4.00
2023-04-02T16:53:23.929Z,8.40
2023-04-02T16:56:35.289Z,8.75
2023-04-02T16:59:51.991Z,7.15
2023-04-02T17:03:32.031Z,5.87
2023-04-02T17:06:48.800Z,5.05
2023-04-02T17:09:53.398Z,5.60
2023-04-02T17:13:08.101Z,7.05
2023-04-02T17:16:20.864Z,5.85
2023-04-02T17:19:26.161Z,5.00
2023-04-02T17:22:30.647Z,4.22
2023-04-02T17:25:37.477Z,4.00
2023-04-02T17:28:39.961Z,4.35
2023-04-02T17:31:43.639Z,4.90
2023-04-02T17:34:46.175Z,4.82
2023-04-02T17:38:13.989Z,7.15
2023-04-02T17:42:06.837Z,7.32
2023-04-02T17:45:20.442Z,6.05
2023-04-02T17:48:33.359Z,5.22
2023-04-02T17:51:52.168Z,4.28
2023-04-02T17:55:17.397Z,4.93
2023-04-02T17:58:47.963Z,4.47
2023-04-02T18:01:56.564Z,4.30
2023-04-02T18:05:12.729Z,4.97
2023-04-02T18:08:34.553Z,4.40
2023-04-02T18:11:55.801Z,2.92
2023-04-02T18:15:10.397Z,2.70
2023-04-02T18:18:37.008Z,3.20
2023-04-02T18:21:48.647Z,2.60
2023-04-02T18:25:09.931Z,2.42
2023-04-02T18:28:57.090Z,2.40
2023-04-02T18:32:27.262Z,4.15
2023-04-02T18:35:57.798Z,4.28
2023-04-02T18:39:10.421Z,3.90
2023-04-02T18:42:50.603Z,2.22
2023-04-02T18:45:59.110Z,2.50
2023-04-02T18:49:06.228Z,2.20
2023-04-02T18:52:15.344Z,1.90
2023-04-02T18:55:21.136Z,1.62
2023-04-02T18:58:42.737Z,1.98
2023-04-02T19:01:49.552Z,2.70
2023-04-02T19:05:01.545Z,3.30
2023-04-02T19:08:10.921Z,2.30
2023-04-02T19:11:17.020Z,2.47
2023-04-02T19:14:21.015Z,1.83
2023-04-02T19:17:31.594Z,2.33
2023-04-02T19:20:50.413Z,2.50
2023-04-02T19:24:07.064Z,2.55
2023-04-02T19:27:32.668Z,2.50
2023-04-02T19:31:12.670Z,2.20
2023-04-02T19:34:27.293Z,1.90
2023-04-02T19:41:00.578Z,1.90
2023-04-02T19:44:03.144Z,1.65
2023-04-02T19:47:05.684Z,1.62
2023-04-02T19:50:08.707Z,1.70
2023-04-02T19:53:11.557Z,1.90
2023-04-02T19:56:14.103Z,1.40
2023-04-02T19:59:18.581Z,1.45
2023-04-02T20:02:21.527Z,1.50
2023-04-02T20:05:23.729Z,1.20
2023-04-02T20:08:26.904Z,0.82
2023-04-02T20:11:29.621Z,1.52
2023-04-02T20:14:31.814Z,0.80
2023-04-02T20:17:34.273Z,0.90
2023-04-02T20:20:38.047Z,1.00
2023-04-02T20:23:41.092Z,1.30
2023-04-02T20:26:43.572Z,1.10
2023-04-02T20:29:46.644Z,1.10
2023-04-02T20:32:49.316Z,1.08
2023-04-02T20:35:52.235Z,1.00
2023-04-02T20:38:54.607Z,0.82
2023-04-02T20:42:01.147Z,0.90
2023-04-02T20:45:06.158Z,0.70
2023-04-02T20:48:08.362Z,0.95
2023-04-02T20:51:14.089Z,1.00
2023-04-02T20:54:31.645Z,1.20
2023-04-02T20:57:34.076Z,0.85
2023-04-02T21:00:36.605Z,0.70
2023-04-02T21:03:40.054Z,0.70
2023-04-02T21:06:42.419Z,0.80
2023-04-02T21:09:44.620Z,0.80
2023-04-02T21:12:46.867Z,0.90
2023-04-02T21:15:49.144Z,2.92
2023-04-02T21:18:52.990Z,1.48
2023-04-02T21:21:55.456Z,1.40
2023-04-02T21:24:57.633Z,1.30
2023-04-02T21:27:59.828Z,1.00
2023-04-02T21:31:11.286Z,0.88
2023-04-02T21:37:16.787Z,1.12
2023-04-02T21:40:19.139Z,0.93
2023-04-02T21:43:21.316Z,1.25
2023-04-02T21:46:26.092Z,0.80
2023-04-02T21:49:29.744Z,0.80
2023-04-02T21:52:32.436Z,1.10
2023-04-02T21:55:34.587Z,1.00
2023-04-02T21:58:36.894Z,1.40
2023-04-02T22:01:42.401Z,1.12
2023-04-02T22:04:45.192Z,0.98
2023-04-02T22:07:47.484Z,1.10
2023-04-02T22:10:49.647Z,1.37
2023-04-02T22:13:52.057Z,0.90
2023-04-02T22:16:54.741Z,1.37
2023-04-02T22:19:56.996Z,1.17
2023-04-02T22:22:59.192Z,1.67
2023-04-02T22:26:02.276Z,1.55
2023-04-02T22:29:04.905Z,1.27
2023-04-02T22:32:07.090Z,2.25
2023-04-02T22:35:09.531Z,1.73
2023-04-02T22:38:11.686Z,1.77
2023-04-02T22:41:19.284Z,1.70
2023-04-02T22:44:21.669Z,2.12
2023-04-02T22:47:23.936Z,2.00
2023-04-02T22:50:26.373Z,1.80
2023-04-02T22:53:28.761Z,2.00
2023-04-02T22:56:35.361Z,2.72
2023-04-02T22:59:37.607Z,2.35
2023-04-02T23:02:40.472Z,2.00
2023-04-02T23:05:42.964Z,8.20
2023-04-02T23:08:46.060Z,5.03
2023-04-02T23:11:48.290Z,3.50
2023-04-02T23:14:50.939Z,2.30
2023-04-02T23:17:53.161Z,2.35
2023-04-02T23:20:55.697Z,1.73
2023-04-02T23:23:58.406Z,1.95
2023-04-02T23:27:00.636Z,1.85
2023-04-02T23:30:02.958Z,1.83
2023-04-02T23:33:05.214Z,1.85
2023-04-02T23:36:14.359Z,1.75
2023-04-02T23:39:16.999Z,1.70
2023-04-02T23:42:19.178Z,2.20
2023-04-02T23:45:21.360Z,1.70
2023-04-02T23:48:23.758Z,1.90
2023-04-02T23:51:26.692Z,2.10
2023-04-02T23:54:28.877Z,2.08
2023-04-02T23:57:31.478Z,1.98
